Mount Ayr, Iowa
Current Conditions -  °F | °C
As of 4:53 PM on Thursday 20 Nov 2014 (Local Time) from KLWD Reporting Station
Clear Clear  
Wind Chill: 17°   Ceiling: Unl
Heat Index: 24°   Visibility: 10mi
Dew Point: 16°   Wind: 6mph
Humidity: 71%   Direction: 340°NNW
Pressure: 30.21"   Gusts: NA
Location:  40.71°N, 94.24°W
Report Text: KLWD 202253Z AUTO 34005KT 10SM CLR M04/M09 A3021 RMK AO2 SLP246 T10441089
Loading
Personal Weather Stations






























Interactive Weather Map New forecast layout! Learn more

10-Day Weather Forecast

Advertisements
Track Severe Weather on mobile